sensor_id;sensor_type;location;lat;lon;timestamp;P1;durP1;ratioP1;P2;durP2;ratioP2
3991;SDS011;2010;48.194;16.394;2023-04-19T00:00:14;17.23;;;12.20;;
3991;SDS011;2010;48.194;16.394;2023-04-19T00:02:50;16.33;;;11.90;;
3991;SDS011;2010;48.194;16.394;2023-04-19T00:05:28;15.60;;;12.87;;
3991;SDS011;2010;48.194;16.394;2023-04-19T00:08:08;15.20;;;11.83;;
3991;SDS011;2010;48.194;16.394;2023-04-19T00:10:44;15.20;;;11.90;;
3991;SDS011;2010;48.194;16.394;2023-04-19T00:13:13;16.87;;;13.27;;
3991;SDS011;2010;48.194;16.394;2023-04-19T00:15:51;16.30;;;13.33;;
3991;SDS011;2010;48.194;16.394;2023-04-19T00:18:26;16.07;;;12.83;;
3991;SDS011;2010;48.194;16.394;2023-04-19T00:21:00;16.30;;;12.90;;
3991;SDS011;2010;48.194;16.394;2023-04-19T00:23:35;15.77;;;12.70;;
3991;SDS011;2010;48.194;16.394;2023-04-19T00:26:04;22.23;;;13.80;;
3991;SDS011;2010;48.194;16.394;2023-04-19T00:28:33;17.53;;;13.50;;
3991;SDS011;2010;48.194;16.394;2023-04-19T00:31:01;14.73;;;13.20;;
3991;SDS011;2010;48.194;16.394;2023-04-19T00:33:34;16.80;;;13.07;;
3991;SDS011;2010;48.194;16.394;2023-04-19T00:36:05;16.43;;;13.40;;
3991;SDS011;2010;48.194;16.394;2023-04-19T00:38:43;17.30;;;14.30;;
3991;SDS011;2010;48.194;16.394;2023-04-19T00:41:12;19.83;;;14.50;;
3991;SDS011;2010;48.194;16.394;2023-04-19T00:43:44;15.47;;;13.47;;
3991;SDS011;2010;48.194;16.394;2023-04-19T00:46:18;16.60;;;13.47;;
3991;SDS011;2010;48.194;16.394;2023-04-19T00:49:00;17.23;;;13.67;;
3991;SDS011;2010;48.194;16.394;2023-04-19T00:51:28;19.33;;;14.07;;
3991;SDS011;2010;48.194;16.394;2023-04-19T00:54:12;17.50;;;15.07;;
3991;SDS011;2010;48.194;16.394;2023-04-19T00:56:42;16.70;;;13.87;;
3991;SDS011;2010;48.194;16.394;2023-04-19T00:59:13;17.00;;;14.77;;
3991;SDS011;2010;48.194;16.394;2023-04-19T01:01:43;16.57;;;14.30;;
3991;SDS011;2010;48.194;16.394;2023-04-19T01:04:15;17.50;;;14.70;;
3991;SDS011;2010;48.194;16.394;2023-04-19T01:06:51;22.60;;;15.57;;
3991;SDS011;2010;48.194;16.394;2023-04-19T01:09:26;18.60;;;15.17;;
3991;SDS011;2010;48.194;16.394;2023-04-19T01:11:58;19.00;;;15.33;;
3991;SDS011;2010;48.194;16.394;2023-04-19T01:14:38;16.27;;;13.07;;
3991;SDS011;2010;48.194;16.394;2023-04-19T01:17:10;22.30;;;14.47;;
3991;SDS011;2010;48.194;16.394;2023-04-19T01:19:48;19.40;;;14.83;;
3991;SDS011;2010;48.194;16.394;2023-04-19T01:22:21;18.67;;;14.97;;
3991;SDS011;2010;48.194;16.394;2023-04-19T01:24:53;19.57;;;14.83;;
3991;SDS011;2010;48.194;16.394;2023-04-19T01:27:25;17.97;;;15.80;;
3991;SDS011;2010;48.194;16.394;2023-04-19T01:29:58;21.43;;;15.13;;
3991;SDS011;2010;48.194;16.394;2023-04-19T01:32:35;20.63;;;14.23;;
3991;SDS011;2010;48.194;16.394;2023-04-19T01:35:04;19.90;;;15.50;;
3991;SDS011;2010;48.194;16.394;2023-04-19T01:37:38;19.47;;;14.97;;
3991;SDS011;2010;48.194;16.394;2023-04-19T01:40:10;20.60;;;15.60;;
3991;SDS011;2010;48.194;16.394;2023-04-19T01:42:41;22.90;;;16.57;;
3991;SDS011;2010;48.194;16.394;2023-04-19T01:45:13;20.63;;;15.87;;
3991;SDS011;2010;48.194;16.394;2023-04-19T01:47:52;21.70;;;16.63;;
3991;SDS011;2010;48.194;16.394;2023-04-19T01:50:33;23.67;;;17.20;;
3991;SDS011;2010;48.194;16.394;2023-04-19T01:53:08;18.80;;;15.30;;
3991;SDS011;2010;48.194;16.394;2023-04-19T01:55:45;21.80;;;17.07;;
3991;SDS011;2010;48.194;16.394;2023-04-19T01:58:15;24.33;;;17.30;;
3991;SDS011;2010;48.194;16.394;2023-04-19T02:00:52;24.57;;;17.80;;
3991;SDS011;2010;48.194;16.394;2023-04-19T02:03:21;19.50;;;16.30;;
3991;SDS011;2010;48.194;16.394;2023-04-19T02:05:51;26.20;;;18.93;;
3991;SDS011;2010;48.194;16.394;2023-04-19T02:08:28;25.50;;;18.83;;
3991;SDS011;2010;48.194;16.394;2023-04-19T02:10:56;26.33;;;17.73;;
3991;SDS011;2010;48.194;16.394;2023-04-19T02:13:28;24.10;;;16.93;;
3991;SDS011;2010;48.194;16.394;2023-04-19T02:16:00;21.60;;;16.93;;
3991;SDS011;2010;48.194;16.394;2023-04-19T02:18:43;23.03;;;17.80;;
3991;SDS011;2010;48.194;16.394;2023-04-19T02:21:15;21.93;;;17.30;;
3991;SDS011;2010;48.194;16.394;2023-04-19T02:23:49;22.60;;;16.87;;
3991;SDS011;2010;48.194;16.394;2023-04-19T02:26:28;25.63;;;20.00;;
3991;SDS011;2010;48.194;16.394;2023-04-19T02:28:59;24.67;;;18.30;;
3991;SDS011;2010;48.194;16.394;2023-04-19T02:31:33;22.30;;;17.70;;
3991;SDS011;2010;48.194;16.394;2023-04-19T02:34:09;27.07;;;20.47;;
3991;SDS011;2010;48.194;16.394;2023-04-19T02:36:38;24.90;;;18.07;;
3991;SDS011;2010;48.194;16.394;2023-04-19T02:39:11;22.17;;;17.83;;
3991;SDS011;2010;48.194;16.394;2023-04-19T02:41:44;24.40;;;17.80;;
3991;SDS011;2010;48.194;16.394;2023-04-19T02:44:13;25.67;;;17.80;;
3991;SDS011;2010;48.194;16.394;2023-04-19T02:46:47;25.90;;;18.27;;
3991;SDS011;2010;48.194;16.394;2023-04-19T02:49:20;21.07;;;17.30;;
3991;SDS011;2010;48.194;16.394;2023-04-19T02:52:00;23.23;;;17.03;;
3991;SDS011;2010;48.194;16.394;2023-04-19T02:54:48;25.20;;;18.53;;
3991;SDS011;2010;48.194;16.394;2023-04-19T02:57:18;23.83;;;19.10;;
3991;SDS011;2010;48.194;16.394;2023-04-19T02:59:50;25.47;;;19.47;;
3991;SDS011;2010;48.194;16.394;2023-04-19T03:02:21;26.93;;;19.67;;
3991;SDS011;2010;48.194;16.394;2023-04-19T03:04:57;20.40;;;17.53;;
3991;SDS011;2010;48.194;16.394;2023-04-19T03:07:29;28.90;;;20.20;;
3991;SDS011;2010;48.194;16.394;2023-04-19T03:09:58;28.17;;;20.37;;
3991;SDS011;2010;48.194;16.394;2023-04-19T03:12:28;23.40;;;18.87;;
3991;SDS011;2010;48.194;16.394;2023-04-19T03:15:04;24.30;;;19.53;;
3991;SDS011;2010;48.194;16.394;2023-04-19T03:17:40;25.80;;;20.80;;
3991;SDS011;2010;48.194;16.394;2023-04-19T03:20:10;28.83;;;20.07;;
3991;SDS011;2010;48.194;16.394;2023-04-19T03:22:43;25.97;;;19.20;;
3991;SDS011;2010;48.194;16.394;2023-04-19T03:25:17;22.70;;;18.67;;
3991;SDS011;2010;48.194;16.394;2023-04-19T03:28:02;30.90;;;21.40;;
3991;SDS011;2010;48.194;16.394;2023-04-19T03:31:07;22.50;;;18.77;;
3991;SDS011;2010;48.194;16.394;2023-04-19T03:33:36;30.30;;;19.73;;
3991;SDS011;2010;48.194;16.394;2023-04-19T03:36:09;30.00;;;20.90;;
3991;SDS011;2010;48.194;16.394;2023-04-19T03:38:43;28.27;;;20.00;;
3991;SDS011;2010;48.194;16.394;2023-04-19T03:41:19;24.87;;;20.83;;
3991;SDS011;2010;48.194;16.394;2023-04-19T03:43:58;28.70;;;19.00;;
3991;SDS011;2010;48.194;16.394;2023-04-19T03:46:30;26.83;;;21.37;;
3991;SDS011;2010;48.194;16.394;2023-04-19T03:49:01;30.00;;;22.40;;
3991;SDS011;2010;48.194;16.394;2023-04-19T03:51:33;32.13;;;24.20;;
3991;SDS011;2010;48.194;16.394;2023-04-19T03:54:03;29.83;;;23.60;;
3991;SDS011;2010;48.194;16.394;2023-04-19T03:56:34;32.50;;;23.10;;
3991;SDS011;2010;48.194;16.394;2023-04-19T03:59:05;29.27;;;21.83;;
3991;SDS011;2010;48.194;16.394;2023-04-19T04:01:36;32.60;;;22.80;;
3991;SDS011;2010;48.194;16.394;2023-04-19T04:04:09;29.50;;;24.73;;
3991;SDS011;2010;48.194;16.394;2023-04-19T04:06:46;35.70;;;24.40;;
3991;SDS011;2010;48.194;16.394;2023-04-19T04:09:22;30.87;;;23.30;;
3991;SDS011;2010;48.194;16.394;2023-04-19T04:12:05;31.53;;;23.73;;
3991;SDS011;2010;48.194;16.394;2023-04-19T04:14:36;33.33;;;22.73;;
3991;SDS011;2010;48.194;16.394;2023-04-19T04:17:19;33.50;;;23.30;;
3991;SDS011;2010;48.194;16.394;2023-04-19T04:19:49;32.90;;;24.93;;
3991;SDS011;2010;48.194;16.394;2023-04-19T04:22:24;38.73;;;26.00;;
3991;SDS011;2010;48.194;16.394;2023-04-19T04:25:01;33.53;;;25.17;;
3991;SDS011;2010;48.194;16.394;2023-04-19T04:27:39;34.60;;;24.90;;
3991;SDS011;2010;48.194;16.394;2023-04-19T04:30:12;34.30;;;24.20;;
3991;SDS011;2010;48.194;16.394;2023-04-19T04:32:55;41.93;;;26.40;;
3991;SDS011;2010;48.194;16.394;2023-04-19T04:35:29;37.97;;;26.23;;
3991;SDS011;2010;48.194;16.394;2023-04-19T04:38:10;30.43;;;24.20;;
3991;SDS011;2010;48.194;16.394;2023-04-19T04:40:51;35.13;;;24.97;;
3991;SDS011;2010;48.194;16.394;2023-04-19T04:43:23;30.77;;;23.97;;
3991;SDS011;2010;48.194;16.394;2023-04-19T04:45:58;34.53;;;25.40;;
3991;SDS011;2010;48.194;16.394;2023-04-19T04:48:41;34.20;;;25.70;;
3991;SDS011;2010;48.194;16.394;2023-04-19T04:51:19;35.70;;;25.60;;
3991;SDS011;2010;48.194;16.394;2023-04-19T04:53:52;36.43;;;24.20;;
3991;SDS011;2010;48.194;16.394;2023-04-19T04:56:24;36.53;;;25.67;;
3991;SDS011;2010;48.194;16.394;2023-04-19T04:58:57;36.13;;;25.23;;
3991;SDS011;2010;48.194;16.394;2023-04-19T05:01:38;37.23;;;25.40;;
3991;SDS011;2010;48.194;16.394;2023-04-19T05:04:07;35.50;;;24.60;;
3991;SDS011;2010;48.194;16.394;2023-04-19T05:06:36;34.63;;;23.87;;
3991;SDS011;2010;48.194;16.394;2023-04-19T05:09:10;32.00;;;24.30;;
3991;SDS011;2010;48.194;16.394;2023-04-19T05:11:40;34.10;;;24.80;;
3991;SDS011;2010;48.194;16.394;2023-04-19T05:14:15;31.20;;;23.93;;
3991;SDS011;2010;48.194;16.394;2023-04-19T05:16:47;29.80;;;23.07;;
3991;SDS011;2010;48.194;16.394;2023-04-19T05:19:18;32.53;;;24.20;;
3991;SDS011;2010;48.194;16.394;2023-04-19T05:21:54;30.00;;;23.43;;
3991;SDS011;2010;48.194;16.394;2023-04-19T05:24:24;36.37;;;24.40;;
3991;SDS011;2010;48.194;16.394;2023-04-19T05:26:57;31.30;;;24.60;;
3991;SDS011;2010;48.194;16.394;2023-04-19T05:29:30;32.83;;;24.07;;
3991;SDS011;2010;48.194;16.394;2023-04-19T05:32:00;33.77;;;24.77;;
3991;SDS011;2010;48.194;16.394;2023-04-19T05:34:36;32.17;;;24.67;;
3991;SDS011;2010;48.194;16.394;2023-04-19T05:37:05;35.33;;;23.90;;
3991;SDS011;2010;48.194;16.394;2023-04-19T05:39:37;34.70;;;25.83;;
3991;SDS011;2010;48.194;16.394;2023-04-19T05:42:13;33.50;;;23.40;;
3991;SDS011;2010;48.194;16.394;2023-04-19T05:44:52;32.37;;;24.67;;
3991;SDS011;2010;48.194;16.394;2023-04-19T05:47:53;31.83;;;24.83;;
3991;SDS011;2010;48.194;16.394;2023-04-19T05:50:43;30.47;;;23.60;;
3991;SDS011;2010;48.194;16.394;2023-04-19T05:53:34;33.90;;;24.17;;
3991;SDS011;2010;48.194;16.394;2023-04-19T05:56:06;33.07;;;23.87;;
3991;SDS011;2010;48.194;16.394;2023-04-19T05:58:45;35.30;;;24.70;;
3991;SDS011;2010;48.194;16.394;2023-04-19T06:01:21;32.20;;;25.40;;
3991;SDS011;2010;48.194;16.394;2023-04-19T06:03:53;29.70;;;22.60;;
3991;SDS011;2010;48.194;16.394;2023-04-19T06:06:24;33.33;;;25.77;;
3991;SDS011;2010;48.194;16.394;2023-04-19T06:08:56;28.57;;;22.87;;
3991;SDS011;2010;48.194;16.394;2023-04-19T06:11:29;32.30;;;23.97;;
3991;SDS011;2010;48.194;16.394;2023-04-19T06:14:17;30.50;;;24.73;;
3991;SDS011;2010;48.194;16.394;2023-04-19T06:16:52;36.57;;;24.37;;
3991;SDS011;2010;48.194;16.394;2023-04-19T06:19:30;31.67;;;26.13;;
3991;SDS011;2010;48.194;16.394;2023-04-19T06:22:00;29.17;;;24.40;;
3991;SDS011;2010;48.194;16.394;2023-04-19T06:24:29;33.47;;;23.40;;
3991;SDS011;2010;48.194;16.394;2023-04-19T06:27:03;35.83;;;25.00;;
3991;SDS011;2010;48.194;16.394;2023-04-19T06:29:41;29.27;;;23.33;;
3991;SDS011;2010;48.194;16.394;2023-04-19T06:32:14;29.13;;;23.43;;
3991;SDS011;2010;48.194;16.394;2023-04-19T06:34:55;37.23;;;25.50;;
3991;SDS011;2010;48.194;16.394;2023-04-19T06:37:34;33.60;;;26.20;;
3991;SDS011;2010;48.194;16.394;2023-04-19T06:40:05;37.50;;;23.80;;
3991;SDS011;2010;48.194;16.394;2023-04-19T06:42:36;33.93;;;26.17;;
3991;SDS011;2010;48.194;16.394;2023-04-19T06:45:08;41.93;;;27.73;;
3991;SDS011;2010;48.194;16.394;2023-04-19T06:47:47;35.63;;;25.33;;
3991;SDS011;2010;48.194;16.394;2023-04-19T06:50:19;38.07;;;26.80;;
3991;SDS011;2010;48.194;16.394;2023-04-19T06:52:48;33.20;;;27.00;;
3991;SDS011;2010;48.194;16.394;2023-04-19T06:55:22;36.30;;;27.40;;
3991;SDS011;2010;48.194;16.394;2023-04-19T06:57:54;33.13;;;27.43;;
3991;SDS011;2010;48.194;16.394;2023-04-19T07:00:28;32.60;;;24.90;;
3991;SDS011;2010;48.194;16.394;2023-04-19T07:03:11;35.47;;;26.50;;
3991;SDS011;2010;48.194;16.394;2023-04-19T07:05:56;34.33;;;27.10;;
3991;SDS011;2010;48.194;16.394;2023-04-19T07:08:40;38.90;;;27.00;;
3991;SDS011;2010;48.194;16.394;2023-04-19T07:11:16;41.13;;;25.17;;
3991;SDS011;2010;48.194;16.394;2023-04-19T07:13:56;35.93;;;25.50;;
3991;SDS011;2010;48.194;16.394;2023-04-19T07:16:27;35.17;;;24.90;;
3991;SDS011;2010;48.194;16.394;2023-04-19T07:19:00;30.70;;;24.30;;
3991;SDS011;2010;48.194;16.394;2023-04-19T07:21:29;34.97;;;25.87;;
3991;SDS011;2010;48.194;16.394;2023-04-19T07:24:01;34.80;;;26.10;;
3991;SDS011;2010;48.194;16.394;2023-04-19T07:26:36;36.27;;;26.07;;
3991;SDS011;2010;48.194;16.394;2023-04-19T07:29:07;29.03;;;21.70;;
3991;SDS011;2010;48.194;16.394;2023-04-19T07:31:36;31.03;;;23.30;;
3991;SDS011;2010;48.194;16.394;2023-04-19T07:34:08;29.43;;;21.57;;
3991;SDS011;2010;48.194;16.394;2023-04-19T07:36:46;26.83;;;21.50;;
3991;SDS011;2010;48.194;16.394;2023-04-19T07:39:19;27.77;;;20.40;;
3991;SDS011;2010;48.194;16.394;2023-04-19T07:41:48;28.07;;;21.47;;
3991;SDS011;2010;48.194;16.394;2023-04-19T07:44:19;22.80;;;18.60;;
3991;SDS011;2010;48.194;16.394;2023-04-19T07:46:50;23.70;;;18.23;;
3991;SDS011;2010;48.194;16.394;2023-04-19T07:49:28;24.23;;;19.20;;
3991;SDS011;2010;48.194;16.394;2023-04-19T07:52:00;31.03;;;19.77;;
3991;SDS011;2010;48.194;16.394;2023-04-19T07:54:30;26.00;;;18.47;;
3991;SDS011;2010;48.194;16.394;2023-04-19T07:56:59;23.63;;;17.90;;
3991;SDS011;2010;48.194;16.394;2023-04-19T07:59:30;22.87;;;18.40;;
3991;SDS011;2010;48.194;16.394;2023-04-19T08:02:01;24.50;;;17.60;;
3991;SDS011;2010;48.194;16.394;2023-04-19T08:04:42;22.10;;;16.60;;
3991;SDS011;2010;48.194;16.394;2023-04-19T08:07:15;20.93;;;16.90;;
3991;SDS011;2010;48.194;16.394;2023-04-19T08:09:43;21.80;;;16.70;;
3991;SDS011;2010;48.194;16.394;2023-04-19T08:12:12;22.97;;;17.90;;
3991;SDS011;2010;48.194;16.394;2023-04-19T08:15:00;18.47;;;15.43;;
3991;SDS011;2010;48.194;16.394;2023-04-19T08:17:54;19.20;;;16.30;;
3991;SDS011;2010;48.194;16.394;2023-04-19T08:20:33;22.13;;;16.40;;
3991;SDS011;2010;48.194;16.394;2023-04-19T08:23:04;22.90;;;15.80;;
3991;SDS011;2010;48.194;16.394;2023-04-19T08:25:52;20.23;;;17.50;;
3991;SDS011;2010;48.194;16.394;2023-04-19T08:28:28;20.13;;;16.67;;
3991;SDS011;2010;48.194;16.394;2023-04-19T08:30:58;20.80;;;16.03;;
3991;SDS011;2010;48.194;16.394;2023-04-19T08:33:28;22.70;;;15.93;;
3991;SDS011;2010;48.194;16.394;2023-04-19T08:35:59;21.00;;;15.63;;
3991;SDS011;2010;48.194;16.394;2023-04-19T08:38:27;21.10;;;16.43;;
3991;SDS011;2010;48.194;16.394;2023-04-19T08:40:59;21.03;;;16.10;;
3991;SDS011;2010;48.194;16.394;2023-04-19T08:43:29;19.17;;;16.20;;
3991;SDS011;2010;48.194;16.394;2023-04-19T08:46:07;16.10;;;14.37;;
3991;SDS011;2010;48.194;16.394;2023-04-19T08:48:39;18.33;;;14.40;;
3991;SDS011;2010;48.194;16.394;2023-04-19T08:51:14;17.77;;;14.77;;
3991;SDS011;2010;48.194;16.394;2023-04-19T08:53:49;18.50;;;14.47;;
3991;SDS011;2010;48.194;16.394;2023-04-19T08:56:19;15.90;;;12.60;;
3991;SDS011;2010;48.194;16.394;2023-04-19T08:59:01;17.30;;;14.13;;
3991;SDS011;2010;48.194;16.394;2023-04-19T09:01:45;18.10;;;13.53;;
3991;SDS011;2010;48.194;16.394;2023-04-19T09:04:17;22.07;;;15.03;;
3991;SDS011;2010;48.194;16.394;2023-04-19T09:07:04;17.00;;;11.10;;
3991;SDS011;2010;48.194;16.394;2023-04-19T09:09:37;12.37;;;10.43;;
3991;SDS011;2010;48.194;16.394;2023-04-19T09:12:28;14.80;;;10.77;;
3991;SDS011;2010;48.194;16.394;2023-04-19T09:15:01;11.40;;;10.10;;
3991;SDS011;2010;48.194;16.394;2023-04-19T09:17:31;12.67;;;9.93;;
3991;SDS011;2010;48.194;16.394;2023-04-19T09:20:00;12.50;;;9.70;;
3991;SDS011;2010;48.194;16.394;2023-04-19T09:22:33;11.10;;;9.70;;
3991;SDS011;2010;48.194;16.394;2023-04-19T09:25:03;10.43;;;9.33;;
3991;SDS011;2010;48.194;16.394;2023-04-19T09:27:35;13.97;;;11.40;;
3991;SDS011;2010;48.194;16.394;2023-04-19T09:30:07;14.87;;;10.97;;
3991;SDS011;2010;48.194;16.394;2023-04-19T09:32:49;10.87;;;9.60;;
3991;SDS011;2010;48.194;16.394;2023-04-19T09:35:20;13.30;;;9.57;;
3991;SDS011;2010;48.194;16.394;2023-04-19T09:38:00;12.70;;;10.33;;
3991;SDS011;2010;48.194;16.394;2023-04-19T09:40:35;14.50;;;11.47;;
3991;SDS011;2010;48.194;16.394;2023-04-19T09:43:04;12.70;;;9.90;;
3991;SDS011;2010;48.194;16.394;2023-04-19T09:45:56;11.97;;;9.40;;
3991;SDS011;2010;48.194;16.394;2023-04-19T09:48:27;12.17;;;9.90;;
3991;SDS011;2010;48.194;16.394;2023-04-19T09:50:57;10.27;;;8.90;;
3991;SDS011;2010;48.194;16.394;2023-04-19T09:53:41;10.90;;;8.80;;
3991;SDS011;2010;48.194;16.394;2023-04-19T09:56:16;11.87;;;9.40;;
3991;SDS011;2010;48.194;16.394;2023-04-19T09:58:51;10.73;;;8.60;;
3991;SDS011;2010;48.194;16.394;2023-04-19T10:01:44;9.90;;;8.77;;
3991;SDS011;2010;48.194;16.394;2023-04-19T10:04:14;11.10;;;9.77;;
3991;SDS011;2010;48.194;16.394;2023-04-19T10:07:10;10.27;;;9.17;;
3991;SDS011;2010;48.194;16.394;2023-04-19T10:09:48;10.70;;;9.57;;
3991;SDS011;2010;48.194;16.394;2023-04-19T10:12:25;13.70;;;10.80;;
3991;SDS011;2010;48.194;16.394;2023-04-19T10:14:57;10.63;;;9.50;;
3991;SDS011;2010;48.194;16.394;2023-04-19T10:17:26;10.57;;;9.20;;
3991;SDS011;2010;48.194;16.394;2023-04-19T10:19:56;12.43;;;9.30;;
3991;SDS011;2010;48.194;16.394;2023-04-19T10:22:32;10.70;;;8.70;;
3991;SDS011;2010;48.194;16.394;2023-04-19T10:25:10;9.83;;;8.83;;
3991;SDS011;2010;48.194;16.394;2023-04-19T10:27:43;8.07;;;7.37;;
3991;SDS011;2010;48.194;16.394;2023-04-19T10:30:19;9.53;;;8.20;;
3991;SDS011;2010;48.194;16.394;2023-04-19T10:32:51;9.80;;;8.33;;
3991;SDS011;2010;48.194;16.394;2023-04-19T10:35:25;7.70;;;6.40;;
3991;SDS011;2010;48.194;16.394;2023-04-19T10:38:03;12.10;;;8.83;;
3991;SDS011;2010;48.194;16.394;2023-04-19T10:46:44;10.27;;;8.70;;
3991;SDS011;2010;48.194;16.394;2023-04-19T10:49:17;12.10;;;8.63;;
3991;SDS011;2010;48.194;16.394;2023-04-19T10:51:51;8.37;;;7.57;;
3991;SDS011;2010;48.194;16.394;2023-04-19T10:54:31;10.07;;;9.07;;
3991;SDS011;2010;48.194;16.394;2023-04-19T10:57:04;11.53;;;8.80;;
3991;SDS011;2010;48.194;16.394;2023-04-19T10:59:38;10.33;;;9.27;;
3991;SDS011;2010;48.194;16.394;2023-04-19T11:04:59;9.60;;;8.60;;
3991;SDS011;2010;48.194;16.394;2023-04-19T11:07:36;9.60;;;7.70;;
3991;SDS011;2010;48.194;16.394;2023-04-19T11:10:08;8.60;;;7.70;;
3991;SDS011;2010;48.194;16.394;2023-04-19T11:12:43;9.27;;;6.50;;
3991;SDS011;2010;48.194;16.394;2023-04-19T11:15:18;10.00;;;7.77;;
3991;SDS011;2010;48.194;16.394;2023-04-19T11:17:52;8.10;;;7.30;;
3991;SDS011;2010;48.194;16.394;2023-04-19T11:20:37;8.90;;;7.23;;
3991;SDS011;2010;48.194;16.394;2023-04-19T11:23:14;8.80;;;6.53;;
3991;SDS011;2010;48.194;16.394;2023-04-19T11:25:49;7.90;;;7.10;;
3991;SDS011;2010;48.194;16.394;2023-04-19T11:28:20;8.80;;;7.43;;
3991;SDS011;2010;48.194;16.394;2023-04-19T11:30:54;8.67;;;7.77;;
3991;SDS011;2010;48.194;16.394;2023-04-19T11:33:24;7.33;;;6.60;;
3991;SDS011;2010;48.194;16.394;2023-04-19T11:35:54;9.07;;;7.30;;
3991;SDS011;2010;48.194;16.394;2023-04-19T11:38:25;9.00;;;8.10;;
3991;SDS011;2010;48.194;16.394;2023-04-19T11:40:58;9.10;;;7.20;;
3991;SDS011;2010;48.194;16.394;2023-04-19T11:43:31;9.67;;;8.63;;
3991;SDS011;2010;48.194;16.394;2023-04-19T11:46:06;7.57;;;6.50;;
3991;SDS011;2010;48.194;16.394;2023-04-19T11:48:49;9.43;;;8.43;;
3991;SDS011;2010;48.194;16.394;2023-04-19T11:51:23;10.60;;;9.20;;
3991;SDS011;2010;48.194;16.394;2023-04-19T11:53:54;13.23;;;8.77;;
3991;SDS011;2010;48.194;16.394;2023-04-19T11:56:22;11.13;;;8.97;;
3991;SDS011;2010;48.194;16.394;2023-04-19T11:58:56;12.90;;;9.27;;
3991;SDS011;2010;48.194;16.394;2023-04-19T12:01:26;11.50;;;9.60;;
3991;SDS011;2010;48.194;16.394;2023-04-19T12:04:07;11.73;;;9.40;;
3991;SDS011;2010;48.194;16.394;2023-04-19T12:06:42;11.90;;;9.60;;
3991;SDS011;2010;48.194;16.394;2023-04-19T12:09:20;9.23;;;8.33;;
3991;SDS011;2010;48.194;16.394;2023-04-19T12:11:49;11.67;;;9.90;;
3991;SDS011;2010;48.194;16.394;2023-04-19T12:14:23;9.07;;;8.17;;
3991;SDS011;2010;48.194;16.394;2023-04-19T12:17:07;10.10;;;8.43;;
3991;SDS011;2010;48.194;16.394;2023-04-19T12:19:50;9.33;;;8.33;;
3991;SDS011;2010;48.194;16.394;2023-04-19T12:22:18;10.43;;;9.00;;
3991;SDS011;2010;48.194;16.394;2023-04-19T12:24:56;8.67;;;7.77;;
3991;SDS011;2010;48.194;16.394;2023-04-19T12:27:26;11.57;;;7.60;;
3991;SDS011;2010;48.194;16.394;2023-04-19T12:29:54;7.60;;;6.80;;
3991;SDS011;2010;48.194;16.394;2023-04-19T12:32:27;7.47;;;6.60;;
3991;SDS011;2010;48.194;16.394;2023-04-19T12:34:55;8.27;;;6.60;;
3991;SDS011;2010;48.194;16.394;2023-04-19T12:37:35;10.67;;;7.97;;
3991;SDS011;2010;48.194;16.394;2023-04-19T12:40:05;7.83;;;6.87;;
3991;SDS011;2010;48.194;16.394;2023-04-19T12:42:44;9.50;;;7.33;;
3991;SDS011;2010;48.194;16.394;2023-04-19T12:45:16;9.60;;;7.17;;
3991;SDS011;2010;48.194;16.394;2023-04-19T12:47:59;11.73;;;7.03;;
3991;SDS011;2010;48.194;16.394;2023-04-19T12:50:37;8.53;;;7.00;;
3991;SDS011;2010;48.194;16.394;2023-04-19T12:53:11;8.60;;;7.17;;
3991;SDS011;2010;48.194;16.394;2023-04-19T12:55:47;8.50;;;6.73;;
3991;SDS011;2010;48.194;16.394;2023-04-19T12:58:20;7.93;;;7.13;;
3991;SDS011;2010;48.194;16.394;2023-04-19T13:00:50;10.20;;;6.60;;
3991;SDS011;2010;48.194;16.394;2023-04-19T13:03:21;9.93;;;6.87;;
3991;SDS011;2010;48.194;16.394;2023-04-19T13:05:52;7.17;;;6.47;;
3991;SDS011;2010;48.194;16.394;2023-04-19T13:08:25;8.00;;;7.20;;
3991;SDS011;2010;48.194;16.394;2023-04-19T13:11:11;10.00;;;8.00;;
3991;SDS011;2010;48.194;16.394;2023-04-19T13:13:42;8.97;;;7.10;;
3991;SDS011;2010;48.194;16.394;2023-04-19T13:16:16;8.03;;;6.63;;
3991;SDS011;2010;48.194;16.394;2023-04-19T13:19:01;7.27;;;6.57;;
3991;SDS011;2010;48.194;16.394;2023-04-19T13:21:29;6.77;;;6.17;;
3991;SDS011;2010;48.194;16.394;2023-04-19T13:24:10;9.70;;;7.33;;
3991;SDS011;2010;48.194;16.394;2023-04-19T13:26:42;8.93;;;7.50;;
3991;SDS011;2010;48.194;16.394;2023-04-19T13:29:15;8.03;;;7.13;;
3991;SDS011;2010;48.194;16.394;2023-04-19T13:31:44;7.20;;;6.50;;
3991;SDS011;2010;48.194;16.394;2023-04-19T13:34:21;6.83;;;6.20;;
3991;SDS011;2010;48.194;16.394;2023-04-19T13:36:52;7.33;;;6.63;;
3991;SDS011;2010;48.194;16.394;2023-04-19T13:39:22;7.93;;;6.90;;
3991;SDS011;2010;48.194;16.394;2023-04-19T13:41:50;10.43;;;6.87;;
3991;SDS011;2010;48.194;16.394;2023-04-19T13:44:22;9.43;;;7.00;;
3991;SDS011;2010;48.194;16.394;2023-04-19T13:46:58;11.77;;;7.17;;
3991;SDS011;2010;48.194;16.394;2023-04-19T13:49:40;7.33;;;5.90;;
3991;SDS011;2010;48.194;16.394;2023-04-19T13:52:12;6.40;;;5.70;;
3991;SDS011;2010;48.194;16.394;2023-04-19T13:54:42;7.27;;;6.37;;
3991;SDS011;2010;48.194;16.394;2023-04-19T13:57:27;5.87;;;5.27;;
3991;SDS011;2010;48.194;16.394;2023-04-19T13:59:55;7.50;;;6.43;;
3991;SDS011;2010;48.194;16.394;2023-04-19T14:02:27;6.97;;;5.77;;
3991;SDS011;2010;48.194;16.394;2023-04-19T14:04:57;9.30;;;5.60;;
3991;SDS011;2010;48.194;16.394;2023-04-19T14:07:31;5.53;;;5.03;;
3991;SDS011;2010;48.194;16.394;2023-04-19T14:10:02;6.03;;;5.03;;
3991;SDS011;2010;48.194;16.394;2023-04-19T14:12:34;5.40;;;4.83;;
3991;SDS011;2010;48.194;16.394;2023-04-19T14:15:03;8.73;;;4.97;;
3991;SDS011;2010;48.194;16.394;2023-04-19T14:17:34;7.20;;;5.37;;
3991;SDS011;2010;48.194;16.394;2023-04-19T14:20:08;5.17;;;4.73;;
3991;SDS011;2010;48.194;16.394;2023-04-19T14:22:38;4.97;;;4.47;;
3991;SDS011;2010;48.194;16.394;2023-04-19T14:25:22;4.60;;;4.20;;
3991;SDS011;2010;48.194;16.394;2023-04-19T14:27:52;4.63;;;3.67;;
3991;SDS011;2010;48.194;16.394;2023-04-19T14:30:24;4.43;;;4.07;;
3991;SDS011;2010;48.194;16.394;2023-04-19T14:32:57;5.67;;;4.40;;
3991;SDS011;2010;48.194;16.394;2023-04-19T14:35:28;4.90;;;4.50;;
3991;SDS011;2010;48.194;16.394;2023-04-19T14:37:57;4.80;;;4.43;;
3991;SDS011;2010;48.194;16.394;2023-04-19T14:40:28;5.57;;;4.90;;
3991;SDS011;2010;48.194;16.394;2023-04-19T14:43:03;5.43;;;4.93;;
3991;SDS011;2010;48.194;16.394;2023-04-19T14:45:32;7.40;;;4.97;;
3991;SDS011;2010;48.194;16.394;2023-04-19T14:48:13;5.50;;;4.30;;
3991;SDS011;2010;48.194;16.394;2023-04-19T14:50:55;7.17;;;5.80;;
3991;SDS011;2010;48.194;16.394;2023-04-19T14:53:27;5.50;;;4.60;;
3991;SDS011;2010;48.194;16.394;2023-04-19T14:56:02;5.63;;;4.80;;
3991;SDS011;2010;48.194;16.394;2023-04-19T14:58:43;6.00;;;5.40;;
3991;SDS011;2010;48.194;16.394;2023-04-19T15:01:22;6.27;;;5.40;;
3991;SDS011;2010;48.194;16.394;2023-04-19T15:03:53;5.83;;;5.20;;
3991;SDS011;2010;48.194;16.394;2023-04-19T15:06:31;5.53;;;5.00;;
3991;SDS011;2010;48.194;16.394;2023-04-19T15:09:07;5.50;;;5.00;;
3991;SDS011;2010;48.194;16.394;2023-04-19T15:11:37;5.97;;;4.53;;
3991;SDS011;2010;48.194;16.394;2023-04-19T15:14:08;5.37;;;4.87;;
3991;SDS011;2010;48.194;16.394;2023-04-19T15:16:37;9.30;;;4.77;;
3991;SDS011;2010;48.194;16.394;2023-04-19T15:19:14;5.10;;;4.70;;
3991;SDS011;2010;48.194;16.394;2023-04-19T15:21:58;6.60;;;5.07;;
3991;SDS011;2010;48.194;16.394;2023-04-19T15:24:33;6.43;;;4.70;;
3991;SDS011;2010;48.194;16.394;2023-04-19T15:27:03;5.20;;;4.50;;
3991;SDS011;2010;48.194;16.394;2023-04-19T15:29:33;5.90;;;5.10;;
3991;SDS011;2010;48.194;16.394;2023-04-19T15:32:03;8.13;;;6.00;;
3991;SDS011;2010;48.194;16.394;2023-04-19T15:34:32;5.77;;;4.80;;